Harrisburg International Airport (MDT/KMDT)

Map

Destinations

Information

Location
Harrisburg, PA
Local Time
18:40 / 6:40 pm
GMT Time
22:40 / 10:40 pm
Gates
Unassigned
No FAA reported delays
METAR KMDT 242233Z 22010KT 10SM FEW036 BKN080 24/22 A2980 RMK AO2 WSHFT 2202 RAE30 TSE30 TS MOVD NE LTG DSNT SW TS DSNT SW P0006 T02440222 $
TAF KMDT 242155Z 2422/2518 29008KT P6SM -TSRA SCT050CB BKN070 BKN110 FM242215 29008KT P6SM VCTS SCT040CB BKN060 FM250800 32003KT P6SM BKN035 FM251000 30005KT P6SM SCT110